Time;durP1;ratioP1;P1;durP2;ratioP2;P2;SDS_P1;SDS_P2;PMS_P1;PMS_P2;Temp;Humidity;BMP_temperature;BMP_pressure;BME280_temperature;BME280_humidity;BME280_pressure;Samples;Min_cycle;Max_cycle;Signal;HPM_P1;HPM_P2
2022/01/07 00:00:02;;;;;;;35.00;15.73;;;;;;;;;;5013445;28;20244;-74
2022/01/07 00:02:42;;;;;;;35.50;15.93;;;;;;;;;;5029780;28;20220;-74
2022/01/07 00:05:08;;;;;;;38.03;16.70;;;;;;;;;;4996767;28;20248;-73
2022/01/07 00:07:34;;;;;;;34.27;16.33;;;;;;;;;;5029988;28;20766;-73
2022/01/07 00:10:03;;;;;;;40.53;16.53;;;;;;;;;;5030776;28;20224;-73
2022/01/07 00:12:31;;;;;;;69.43;28.80;;;;;;;;;;4992214;28;20288;-74
2022/01/07 00:14:58;;;;;;;48.07;20.33;;;;;;;;;;5037213;28;20599;-74
2022/01/07 00:17:24;;;;;;;75.20;31.80;;;;;;;;;;5011874;28;20226;-73
2022/01/07 00:19:50;;;;;;;66.20;30.93;;;;;;;;;;5031247;28;20216;-74
2022/01/07 00:22:20;;;;;;;69.67;28.87;;;;;;;;;;5028423;28;20630;-75
2022/01/07 00:24:50;;;;;;;62.87;26.27;;;;;;;;;;5013617;28;20595;-73
2022/01/07 00:27:18;;;;;;;52.17;21.27;;;;;;;;;;5029447;28;20211;-74
2022/01/07 00:29:43;;;;;;;39.57;17.63;;;;;;;;;;5013613;28;20568;-74
2022/01/07 00:32:13;;;;;;;33.20;15.73;;;;;;;;;;5012568;28;20254;-74
2022/01/07 00:34:41;;;;;;;35.83;15.83;;;;;;;;;;5013903;28;20255;-75
2022/01/07 00:37:06;;;;;;;31.03;15.27;;;;;;;;;;4996499;28;20615;-74
2022/01/07 00:39:32;;;;;;;36.67;15.43;;;;;;;;;;4996737;28;20223;-74
2022/01/07 00:42:02;;;;;;;36.07;15.93;;;;;;;;;;5013193;28;20216;-74
2022/01/07 00:44:28;;;;;;;33.63;15.60;;;;;;;;;;5013208;28;20216;-74
2022/01/07 00:46:53;;;;;;;29.57;13.67;;;;;;;;;;5029655;28;20235;-74
2022/01/07 00:49:22;;;;;;;33.00;14.30;;;;;;;;;;5029306;28;20310;-75
2022/01/07 00:51:50;;;;;;;30.27;13.43;;;;;;;;;;5012412;28;20868;-74
2022/01/07 00:54:19;;;;;;;28.53;13.97;;;;;;;;;;5012894;28;20216;-74
2022/01/07 00:56:49;;;;;;;27.33;12.93;;;;;;;;;;5013337;28;20303;-75
2022/01/07 00:59:15;;;;;;;36.27;14.20;;;;;;;;;;5013331;28;20319;-74
2022/01/07 01:01:43;;;;;;;27.90;12.40;;;;;;;;;;5012117;28;20260;-72
2022/01/07 01:04:11;;;;;;;28.07;13.33;;;;;;;;;;5028137;28;20227;-72
2022/01/07 01:06:40;;;;;;;28.90;11.93;;;;;;;;;;4996504;28;20228;-73
2022/01/07 01:09:08;;;;;;;25.03;12.70;;;;;;;;;;5013113;28;20208;-73
2022/01/07 01:11:35;;;;;;;33.53;13.40;;;;;;;;;;5012545;28;20220;-73
2022/01/07 01:14:06;;;;;;;29.03;13.53;;;;;;;;;;5009040;28;20299;-73
2022/01/07 01:16:35;;;;;;;25.63;12.20;;;;;;;;;;5009817;28;20228;-74
2022/01/07 01:19:03;;;;;;;23.20;11.43;;;;;;;;;;5013119;28;20228;-73
2022/01/07 01:21:32;;;;;;;22.50;10.90;;;;;;;;;;5012778;28;20228;-75
2022/01/07 01:23:58;;;;;;;22.33;10.73;;;;;;;;;;5029306;28;20239;-75
2022/01/07 01:26:25;;;;;;;25.03;11.10;;;;;;;;;;5028335;28;20223;-74
2022/01/07 01:28:53;;;;;;;27.17;11.57;;;;;;;;;;5029325;28;20259;-74
2022/01/07 01:31:20;;;;;;;26.53;10.97;;;;;;;;;;5012373;28;20718;-75
2022/01/07 01:33:48;;;;;;;21.83;11.50;;;;;;;;;;5032584;28;20228;-74
2022/01/07 01:36:16;;;;;;;24.07;10.77;;;;;;;;;;4979738;28;20221;-75
2022/01/07 01:38:46;;;;;;;28.27;10.70;;;;;;;;;;5012990;28;20220;-73
2022/01/07 01:41:12;;;;;;;22.43;10.83;;;;;;;;;;4999142;28;20239;-73
2022/01/07 01:43:38;;;;;;;17.03;8.90;;;;;;;;;;5032080;28;20211;-74
2022/01/07 01:46:06;;;;;;;20.00;9.50;;;;;;;;;;5015515;28;20236;-75
2022/01/07 01:48:34;;;;;;;19.30;8.77;;;;;;;;;;5016330;28;20789;-74
2022/01/07 01:51:02;;;;;;;20.20;9.00;;;;;;;;;;5033483;28;20255;-74
2022/01/07 01:53:30;;;;;;;21.63;8.70;;;;;;;;;;5031472;28;20257;-74
2022/01/07 01:55:55;;;;;;;22.23;9.50;;;;;;;;;;4998884;28;20240;-73
2022/01/07 01:58:21;;;;;;;20.17;9.03;;;;;;;;;;5015200;28;20251;-74
2022/01/07 02:00:46;;;;;;;14.77;8.07;;;;;;;;;;5015220;28;20592;-73
2022/01/07 02:03:12;;;;;;;17.80;8.10;;;;;;;;;;4998692;28;20266;-74
2022/01/07 02:05:40;;;;;;;16.80;7.23;;;;;;;;;;5032115;28;20596;-74
2022/01/07 02:08:05;;;;;;;18.33;7.87;;;;;;;;;;4999299;28;20216;-74
2022/01/07 02:10:34;;;;;;;19.57;7.67;;;;;;;;;;5015801;28;20252;-74
2022/01/07 02:13:02;;;;;;;14.20;7.07;;;;;;;;;;4998791;28;20220;-74
2022/01/07 02:15:29;;;;;;;17.90;7.80;;;;;;;;;;4999197;28;20944;-75
2022/01/07 02:18:03;;;;;;;17.00;8.13;;;;;;;;;;5000820;28;20303;-74
2022/01/07 02:20:28;;;;;;;13.50;6.93;;;;;;;;;;5031499;28;20277;-74
2022/01/07 02:22:57;;;;;;;19.30;8.00;;;;;;;;;;5031434;28;20315;-74
2022/01/07 02:25:23;;;;;;;16.80;7.33;;;;;;;;;;5015076;28;20235;-74
2022/01/07 02:27:49;;;;;;;14.77;6.60;;;;;;;;;;5044944;28;20239;-74
2022/01/07 02:30:21;;;;;;;14.93;6.70;;;;;;;;;;4995578;28;20231;-73
2022/01/07 02:32:49;;;;;;;14.13;5.80;;;;;;;;;;4980360;28;20224;-74
2022/01/07 02:35:21;;;;;;;16.10;6.40;;;;;;;;;;4978854;28;20232;-73
2022/01/07 02:37:50;;;;;;;12.03;6.43;;;;;;;;;;4996505;28;20227;-73
2022/01/07 02:40:15;;;;;;;17.73;6.53;;;;;;;;;;5014426;28;20220;-74
2022/01/07 02:42:41;;;;;;;15.40;6.53;;;;;;;;;;5031730;28;20253;-73
2022/01/07 02:45:08;;;;;;;15.03;6.10;;;;;;;;;;5032947;28;20224;-74
2022/01/07 02:47:49;;;;;;;15.03;6.73;;;;;;;;;;5014816;28;20212;-74
2022/01/07 02:50:24;;;;;;;14.30;6.27;;;;;;;;;;5014789;28;20702;-73
2022/01/07 02:52:52;;;;;;;18.30;6.13;;;;;;;;;;5030263;28;20219;-74
2022/01/07 02:55:18;;;;;;;10.60;6.07;;;;;;;;;;5014045;28;20230;-74
2022/01/07 02:57:43;;;;;;;13.90;5.17;;;;;;;;;;5014701;28;20689;-74
2022/01/07 03:00:12;;;;;;;11.77;5.70;;;;;;;;;;5013906;28;20315;-74
2022/01/07 03:02:41;;;;;;;12.50;6.10;;;;;;;;;;5015010;28;20216;-73
2022/01/07 03:05:08;;;;;;;15.73;5.40;;;;;;;;;;5013843;28;20228;-74
2022/01/07 03:07:36;;;;;;;11.70;5.43;;;;;;;;;;4994417;28;20706;-75
2022/01/07 03:10:05;;;;;;;15.90;5.67;;;;;;;;;;4978415;28;20244;-77
2022/01/07 03:12:30;;;;;;;10.00;5.00;;;;;;;;;;5011668;28;20227;-73
2022/01/07 03:14:56;;;;;;;10.00;4.80;;;;;;;;;;5030745;28;20221;-74
2022/01/07 03:17:23;;;;;;;10.67;4.97;;;;;;;;;;5032388;28;20583;-73
2022/01/07 03:19:54;;;;;;;14.53;5.13;;;;;;;;;;5018788;28;20220;-75
2022/01/07 03:22:19;;;;;;;12.10;5.00;;;;;;;;;;5013141;28;20232;-75
2022/01/07 03:24:47;;;;;;;14.30;5.07;;;;;;;;;;4997755;28;20357;-74
2022/01/07 03:27:15;;;;;;;9.97;5.07;;;;;;;;;;5029996;28;20977;-73
2022/01/07 03:29:40;;;;;;;11.17;4.33;;;;;;;;;;4997970;28;20227;-73
2022/01/07 03:32:06;;;;;;;14.60;5.30;;;;;;;;;;5013048;28;20292;-73
2022/01/07 03:34:32;;;;;;;8.63;4.57;;;;;;;;;;4997717;28;20220;-73
2022/01/07 03:37:00;;;;;;;12.33;5.00;;;;;;;;;;5030139;28;20226;-74
2022/01/07 03:39:25;;;;;;;12.10;4.93;;;;;;;;;;5030923;28;20239;-74
2022/01/07 03:41:53;;;;;;;9.90;4.67;;;;;;;;;;5029097;28;20224;-74
2022/01/07 03:44:19;;;;;;;10.53;4.70;;;;;;;;;;5013532;28;20236;-74
2022/01/07 03:46:47;;;;;;;12.30;4.77;;;;;;;;;;5031328;28;20235;-74
2022/01/07 03:49:15;;;;;;;10.97;4.40;;;;;;;;;;5029727;28;20224;-74
2022/01/07 03:51:43;;;;;;;9.33;4.37;;;;;;;;;;5013878;28;20760;-74
2022/01/07 03:54:13;;;;;;;8.83;4.60;;;;;;;;;;5029774;28;20216;-74
2022/01/07 03:56:38;;;;;;;11.70;4.73;;;;;;;;;;4996973;28;20231;-74
2022/01/07 03:59:06;;;;;;;13.97;4.40;;;;;;;;;;5013103;28;20693;-73
2022/01/07 04:01:37;;;;;;;14.00;4.40;;;;;;;;;;5013781;28;20710;-75
2022/01/07 04:04:04;;;;;;;11.17;4.43;;;;;;;;;;5029597;28;20216;-74
2022/01/07 04:06:30;;;;;;;11.10;4.33;;;;;;;;;;5013606;28;20235;-74
2022/01/07 04:08:56;;;;;;;11.73;4.93;;;;;;;;;;4997249;28;20220;-72
2022/01/07 04:11:24;;;;;;;7.33;4.17;;;;;;;;;;5002173;28;21220;-76
2022/01/07 04:13:49;;;;;;;8.77;4.50;;;;;;;;;;4994110;28;20223;-75
2022/01/07 04:16:15;;;;;;;9.67;4.10;;;;;;;;;;5001670;28;20229;-74
2022/01/07 04:18:43;;;;;;;11.87;4.97;;;;;;;;;;5033878;28;20776;-75
2022/01/07 04:21:11;;;;;;;10.43;4.20;;;;;;;;;;5013179;28;20235;-75
2022/01/07 04:23:39;;;;;;;13.27;4.77;;;;;;;;;;5013008;28;20279;-74
2022/01/07 04:26:06;;;;;;;10.67;4.37;;;;;;;;;;5031607;28;20227;-74
2022/01/07 04:28:32;;;;;;;9.70;4.00;;;;;;;;;;5009276;28;20220;-74
2022/01/07 04:31:00;;;;;;;5.97;4.17;;;;;;;;;;5025591;28;20216;-74
2022/01/07 04:33:32;;;;;;;10.37;4.67;;;;;;;;;;5023338;28;20694;-74
2022/01/07 04:35:57;;;;;;;8.67;4.50;;;;;;;;;;5005770;28;20216;-73
2022/01/07 04:38:27;;;;;;;8.50;4.13;;;;;;;;;;5020635;28;20563;-74
2022/01/07 04:40:53;;;;;;;13.37;4.20;;;;;;;;;;5002951;28;20266;-74
2022/01/07 04:43:24;;;;;;;10.60;4.07;;;;;;;;;;5030923;28;20772;-74
2022/01/07 04:45:52;;;;;;;8.90;4.43;;;;;;;;;;5030652;28;20231;-74
2022/01/07 04:48:20;;;;;;;10.43;4.00;;;;;;;;;;4996603;28;20227;-74
2022/01/07 04:50:45;;;;;;;9.73;4.47;;;;;;;;;;4997384;28;20750;-73
2022/01/07 04:53:13;;;;;;;13.23;4.27;;;;;;;;;;5038021;28;20659;-74
2022/01/07 04:55:38;;;;;;;10.73;4.23;;;;;;;;;;5030633;28;20243;-75
2022/01/07 04:58:09;;;;;;;11.00;4.33;;;;;;;;;;5029819;28;20262;-75
2022/01/07 05:00:37;;;;;;;7.53;4.07;;;;;;;;;;5022445;28;20255;-73
2022/01/07 05:03:08;;;;;;;11.37;4.23;;;;;;;;;;5012306;28;20208;-74
2022/01/07 05:05:34;;;;;;;11.60;5.00;;;;;;;;;;5013197;28;20894;-74
2022/01/07 05:08:00;;;;;;;11.03;4.20;;;;;;;;;;5014310;28;20219;-74
2022/01/07 05:10:26;;;;;;;8.17;4.50;;;;;;;;;;5016228;28;20212;-73
2022/01/07 05:12:51;;;;;;;13.57;4.43;;;;;;;;;;5032569;28;20357;-74
2022/01/07 05:15:17;;;;;;;9.53;4.40;;;;;;;;;;4999988;28;20318;-74
2022/01/07 05:17:43;;;;;;;13.17;5.00;;;;;;;;;;5016230;28;20223;-73
2022/01/07 05:20:09;;;;;;;10.57;4.00;;;;;;;;;;5015295;28;20220;-73
2022/01/07 05:22:40;;;;;;;12.00;5.13;;;;;;;;;;5000436;28;20291;-73
2022/01/07 05:25:06;;;;;;;11.80;4.67;;;;;;;;;;5033852;28;20697;-74
2022/01/07 05:27:32;;;;;;;8.57;4.40;;;;;;;;;;5000629;28;20224;-75
2022/01/07 05:30:07;;;;;;;10.30;4.70;;;;;;;;;;5016646;28;20220;-74
2022/01/07 05:32:35;;;;;;;9.00;4.17;;;;;;;;;;5016193;28;20220;-73
2022/01/07 05:35:03;;;;;;;9.53;5.33;;;;;;;;;;4998592;28;20213;-73
2022/01/07 05:37:31;;;;;;;9.87;4.70;;;;;;;;;;4981271;28;20255;-72
2022/01/07 05:39:57;;;;;;;11.50;4.80;;;;;;;;;;5014804;28;20393;-74
2022/01/07 05:42:23;;;;;;;8.87;4.83;;;;;;;;;;4998827;28;20291;-73
2022/01/07 05:44:49;;;;;;;8.90;4.57;;;;;;;;;;5016041;28;20609;-73
2022/01/07 05:47:14;;;;;;;9.93;4.50;;;;;;;;;;5032079;28;20223;-75
2022/01/07 05:49:42;;;;;;;11.50;4.70;;;;;;;;;;5001023;28;20295;-72
2022/01/07 05:52:12;;;;;;;7.43;4.43;;;;;;;;;;5031339;28;20220;-73
2022/01/07 05:54:40;;;;;;;8.70;4.37;;;;;;;;;;5033986;28;20311;-73
2022/01/07 05:57:06;;;;;;;8.13;4.37;;;;;;;;;;5032556;28;20248;-74
2022/01/07 05:59:34;;;;;;;10.50;4.43;;;;;;;;;;5032381;28;20216;-73
2022/01/07 06:02:06;;;;;;;9.17;4.73;;;;;;;;;;5015990;28;20705;-74
2022/01/07 06:04:32;;;;;;;9.03;4.97;;;;;;;;;;4995741;28;20245;-72
2022/01/07 06:07:00;;;;;;;9.73;4.77;;;;;;;;;;5029490;28;20232;-73
2022/01/07 06:09:25;;;;;;;10.80;4.33;;;;;;;;;;5022495;28;20211;-75
2022/01/07 06:11:51;;;;;;;12.40;5.23;;;;;;;;;;4999693;28;20226;-73
2022/01/07 06:14:18;;;;;;;8.37;4.23;;;;;;;;;;4983521;28;20274;-74
2022/01/07 06:16:46;;;;;;;9.87;4.90;;;;;;;;;;5012514;28;20224;-73
2022/01/07 06:19:19;;;;;;;10.50;4.83;;;;;;;;;;4998125;28;20248;-73
2022/01/07 06:21:49;;;;;;;11.13;4.87;;;;;;;;;;5011855;28;20608;-73
2022/01/07 06:24:17;;;;;;;10.77;5.30;;;;;;;;;;5014859;28;20216;-73
2022/01/07 06:26:43;;;;;;;10.13;4.67;;;;;;;;;;5015818;28;20227;-74
2022/01/07 06:29:13;;;;;;;9.33;4.30;;;;;;;;;;5014459;28;20709;-73
2022/01/07 06:31:43;;;;;;;10.00;4.37;;;;;;;;;;5031781;28;20255;-73
2022/01/07 06:34:09;;;;;;;9.90;4.70;;;;;;;;;;5014887;28;20216;-73
2022/01/07 06:36:39;;;;;;;9.33;4.90;;;;;;;;;;5015450;28;20227;-73
2022/01/07 06:39:05;;;;;;;13.73;4.93;;;;;;;;;;5014867;28;20568;-73
2022/01/07 06:41:31;;;;;;;8.20;4.73;;;;;;;;;;5031460;28;20295;-73
2022/01/07 06:43:56;;;;;;;8.57;4.60;;;;;;;;;;4998774;28;20307;-73
2022/01/07 06:46:25;;;;;;;9.60;4.73;;;;;;;;;;5014363;28;20315;-73
2022/01/07 06:48:52;;;;;;;15.60;4.77;;;;;;;;;;4998964;28;20219;-73
2022/01/07 06:51:20;;;;;;;10.77;5.27;;;;;;;;;;5010290;28;20232;-73
2022/01/07 06:53:45;;;;;;;14.97;5.30;;;;;;;;;;5027366;28;20248;-74
2022/01/07 06:56:11;;;;;;;9.27;5.00;;;;;;;;;;5014655;28;20694;-74
2022/01/07 06:58:39;;;;;;;9.13;4.57;;;;;;;;;;5014561;28;20238;-74
2022/01/07 07:01:06;;;;;;;11.77;5.03;;;;;;;;;;5030155;28;20251;-74
2022/01/07 07:03:39;;;;;;;8.57;4.77;;;;;;;;;;5029601;28;20228;-74
2022/01/07 07:06:05;;;;;;;13.53;5.23;;;;;;;;;;5030075;28;20236;-75
2022/01/07 07:08:34;;;;;;;13.17;4.93;;;;;;;;;;5014708;28;20231;-72
2022/01/07 07:11:00;;;;;;;13.23;5.20;;;;;;;;;;5014766;28;20721;-73
2022/01/07 07:13:25;;;;;;;7.57;4.87;;;;;;;;;;5013948;28;20249;-73
2022/01/07 07:15:53;;;;;;;9.30;5.20;;;;;;;;;;5014684;28;20303;-74
2022/01/07 07:18:23;;;;;;;8.77;4.50;;;;;;;;;;5030227;28;20765;-74
2022/01/07 07:20:51;;;;;;;9.30;5.60;;;;;;;;;;5014986;28;20295;-74
2022/01/07 07:23:19;;;;;;;10.93;5.53;;;;;;;;;;5014146;28;20220;-74
2022/01/07 07:25:45;;;;;;;12.77;5.07;;;;;;;;;;5030962;28;20748;-74
2022/01/07 07:28:12;;;;;;;8.60;4.90;;;;;;;;;;5031522;28;20219;-74
2022/01/07 07:30:42;;;;;;;9.20;5.07;;;;;;;;;;5013894;28;20240;-73
2022/01/07 07:38:50;;;;;;;7.97;5.53;;;;;;;;;;5031726;28;20286;-73
2022/01/07 07:41:19;;;;;;;9.30;5.53;;;;;;;;;;5029653;28;20216;-75
2022/01/07 07:43:47;;;;;;;8.83;5.17;;;;;;;;;;5014162;28;20712;-73
2022/01/07 07:46:17;;;;;;;9.30;5.70;;;;;;;;;;5013995;28;20315;-74
2022/01/07 07:48:48;;;;;;;9.40;5.03;;;;;;;;;;5031077;28;20220;-73
2022/01/07 07:51:14;;;;;;;9.17;5.23;;;;;;;;;;5000829;28;20718;-72
2022/01/07 07:53:44;;;;;;;11.10;6.00;;;;;;;;;;5010131;28;20228;-76
2022/01/07 07:56:13;;;;;;;11.23;5.57;;;;;;;;;;5019423;28;20212;-73
2022/01/07 07:58:39;;;;;;;9.80;5.13;;;;;;;;;;5013659;28;20220;-73
2022/01/07 08:01:07;;;;;;;8.07;5.57;;;;;;;;;;5029224;28;20220;-72
2022/01/07 08:03:35;;;;;;;7.10;5.13;;;;;;;;;;5013395;28;20708;-73
2022/01/07 08:06:06;;;;;;;9.27;5.30;;;;;;;;;;5031005;28;20224;-72
2022/01/07 08:08:34;;;;;;;10.20;5.60;;;;;;;;;;5030007;28;20228;-73
2022/01/07 08:11:02;;;;;;;9.90;5.87;;;;;;;;;;5029712;28;20306;-73
2022/01/07 08:13:31;;;;;;;9.37;5.93;;;;;;;;;;5012679;28;20223;-74
2022/01/07 08:16:02;;;;;;;11.80;5.67;;;;;;;;;;4993741;28;20220;-74
2022/01/07 08:18:28;;;;;;;10.53;6.47;;;;;;;;;;4994120;28;20240;-73
2022/01/07 08:20:58;;;;;;;9.03;5.67;;;;;;;;;;4994073;28;20292;-74
2022/01/07 08:23:24;;;;;;;10.30;6.00;;;;;;;;;;4976883;28;20374;-73
2022/01/07 08:25:52;;;;;;;14.87;6.50;;;;;;;;;;4979627;28;20664;-73
2022/01/07 08:28:25;;;;;;;11.60;5.77;;;;;;;;;;5012581;28;20701;-73
2022/01/07 08:36:16;;;;;;;12.97;8.10;;;;;;;;;;5015117;28;20696;-75
2022/01/07 08:38:44;;;;;;;10.87;6.70;;;;;;;;;;4996921;28;20231;-73
2022/01/07 08:41:12;;;;;;;7.40;6.00;;;;;;;;;;5013525;28;20801;-74
2022/01/07 08:43:39;;;;;;;9.97;6.27;;;;;;;;;;5011605;28;20239;-74
2022/01/07 08:46:05;;;;;;;9.97;6.53;;;;;;;;;;5046743;28;20725;-74
2022/01/07 08:48:35;;;;;;;12.80;6.97;;;;;;;;;;5034225;28;20239;-73
2022/01/07 08:51:00;;;;;;;12.87;7.80;;;;;;;;;;5031652;28;20620;-74
2022/01/07 08:53:28;;;;;;;11.43;6.33;;;;;;;;;;5016570;28;20223;-74
2022/01/07 08:55:56;;;;;;;9.50;6.30;;;;;;;;;;4963077;28;20377;-74
2022/01/07 08:58:24;;;;;;;19.50;10.70;;;;;;;;;;5017230;28;20209;-74
2022/01/07 09:00:52;;;;;;;13.10;8.20;;;;;;;;;;5013550;28;20228;-74
2022/01/07 09:03:20;;;;;;;9.67;7.23;;;;;;;;;;5015197;28;20411;-74
2022/01/07 09:05:48;;;;;;;12.13;7.33;;;;;;;;;;5033806;28;20228;-75
2022/01/07 09:08:13;;;;;;;9.03;6.80;;;;;;;;;;5039137;28;20208;-74
2022/01/07 09:10:41;;;;;;;10.70;6.83;;;;;;;;;;5010938;28;20230;-73
2022/01/07 09:13:11;;;;;;;13.33;7.87;;;;;;;;;;5041111;28;20212;-74
2022/01/07 09:15:37;;;;;;;17.00;7.90;;;;;;;;;;5002371;28;20216;-73
2022/01/07 09:18:10;;;;;;;9.03;6.60;;;;;;;;;;5033293;28;20230;-73
2022/01/07 09:20:43;;;;;;;9.97;6.30;;;;;;;;;;5017737;28;20255;-73
2022/01/07 09:23:09;;;;;;;11.07;6.43;;;;;;;;;;5015772;28;20302;-73
2022/01/07 09:25:36;;;;;;;11.67;6.40;;;;;;;;;;5000833;28;20578;-74
2022/01/07 09:28:05;;;;;;;9.67;7.00;;;;;;;;;;5000285;28;20231;-75
2022/01/07 09:30:31;;;;;;;11.20;6.57;;;;;;;;;;4984340;28;20255;-74
2022/01/07 09:32:59;;;;;;;9.63;6.70;;;;;;;;;;5033080;28;20255;-74
2022/01/07 09:35:25;;;;;;;8.80;6.70;;;;;;;;;;5012721;28;20234;-75
2022/01/07 09:37:50;;;;;;;11.30;6.90;;;;;;;;;;5018118;28;20235;-74
2022/01/07 09:40:16;;;;;;;10.70;6.90;;;;;;;;;;5032219;28;20227;-75
2022/01/07 09:42:58;;;;;;;11.97;6.67;;;;;;;;;;5016214;28;20255;-74
2022/01/07 09:45:26;;;;;;;10.93;6.43;;;;;;;;;;5016230;28;20317;-74
2022/01/07 09:47:55;;;;;;;14.43;7.50;;;;;;;;;;5009461;28;20721;-74
2022/01/07 09:50:23;;;;;;;9.03;6.23;;;;;;;;;;4983414;28;20682;-75
2022/01/07 09:52:52;;;;;;;12.20;6.63;;;;;;;;;;5014198;28;20239;-74
2022/01/07 09:55:18;;;;;;;10.40;7.03;;;;;;;;;;5031695;28;20636;-74
2022/01/07 09:57:43;;;;;;;10.33;6.10;;;;;;;;;;5015921;28;20216;-74
2022/01/07 10:00:12;;;;;;;10.27;6.53;;;;;;;;;;5031950;28;20220;-74
2022/01/07 10:03:06;;;;;;;9.57;6.10;;;;;;;;;;5014975;28;20231;-74
2022/01/07 10:05:48;;;;;;;11.00;7.17;;;;;;;;;;5024655;28;20304;-73
2022/01/07 10:08:28;;;;;;;11.20;6.77;;;;;;;;;;5028080;28;20747;-72
2022/01/07 10:11:18;;;;;;;9.77;6.43;;;;;;;;;;5002628;28;20230;-73
2022/01/07 10:13:50;;;;;;;6.93;6.10;;;;;;;;;;5032760;28;20701;-74
2022/01/07 10:16:22;;;;;;;12.23;7.17;;;;;;;;;;5000084;28;20231;-74
2022/01/07 10:18:48;;;;;;;8.30;6.77;;;;;;;;;;5006344;28;20227;-75
2022/01/07 10:21:15;;;;;;;10.57;7.20;;;;;;;;;;5033179;28;20233;-75
2022/01/07 10:23:43;;;;;;;9.80;7.13;;;;;;;;;;5032490;28;20239;-74
2022/01/07 10:26:14;;;;;;;7.57;6.40;;;;;;;;;;5016029;28;20235;-72
2022/01/07 10:28:42;;;;;;;7.93;6.03;;;;;;;;;;4996340;28;20216;-74
2022/01/07 10:31:20;;;;;;;6.50;5.33;;;;;;;;;;5012944;28;20690;-74
2022/01/07 10:33:49;;;;;;;6.27;5.53;;;;;;;;;;4989393;28;20702;-74
2022/01/07 10:36:22;;;;;;;8.50;6.30;;;;;;;;;;5014732;28;20221;-73
2022/01/07 10:39:00;;;;;;;8.20;6.27;;;;;;;;;;5016296;28;20220;-75
2022/01/07 10:41:25;;;;;;;6.83;5.90;;;;;;;;;;5027820;28;20231;-76
2022/01/07 10:43:52;;;;;;;6.57;5.73;;;;;;;;;;5033049;28;20212;-71
2022/01/07 10:46:24;;;;;;;7.10;5.77;;;;;;;;;;5030595;28;20238;-71
2022/01/07 10:48:55;;;;;;;8.30;5.67;;;;;;;;;;5038890;28;20635;-71
2022/01/07 10:51:27;;;;;;;9.80;6.10;;;;;;;;;;5029423;28;20240;-70
2022/01/07 10:54:00;;;;;;;18.73;11.37;;;;;;;;;;5000084;28;20571;-71
2022/01/07 10:56:34;;;;;;;31.13;19.57;;;;;;;;;;5029895;28;20573;-70
2022/01/07 10:59:03;;;;;;;24.93;14.00;;;;;;;;;;5031438;28;20875;-70
2022/01/07 11:01:43;;;;;;;21.97;15.27;;;;;;;;;;5028906;28;20232;-70
2022/01/07 11:04:13;;;;;;;15.77;11.90;;;;;;;;;;5015289;28;20212;-69
2022/01/07 11:06:39;;;;;;;9.47;7.10;;;;;;;;;;4997114;28;20228;-70
2022/01/07 11:09:09;;;;;;;13.10;8.80;;;;;;;;;;5010944;28;20767;-72
2022/01/07 11:11:36;;;;;;;15.10;8.23;;;;;;;;;;5040980;28;20252;-70
2022/01/07 11:14:06;;;;;;;10.63;8.90;;;;;;;;;;5015165;28;20271;-70
2022/01/07 11:16:32;;;;;;;14.03;9.07;;;;;;;;;;5023569;28;20706;-71
2022/01/07 11:19:00;;;;;;;10.37;8.33;;;;;;;;;;5023207;28;20269;-70
2022/01/07 11:21:25;;;;;;;12.50;9.73;;;;;;;;;;4978400;28;20232;-71
2022/01/07 11:23:51;;;;;;;11.07;9.07;;;;;;;;;;4999174;28;20220;-71
2022/01/07 11:26:17;;;;;;;12.27;9.43;;;;;;;;;;5032011;28;20315;-70
2022/01/07 11:28:55;;;;;;;13.60;9.80;;;;;;;;;;5032862;28;20790;-70
2022/01/07 11:31:23;;;;;;;12.57;9.53;;;;;;;;;;5014648;28;20226;-68
2022/01/07 11:34:19;;;;;;;15.60;9.93;;;;;;;;;;5028694;28;20221;-71
2022/01/07 11:36:45;;;;;;;16.13;10.17;;;;;;;;;;5043757;28;20696;-71
2022/01/07 11:39:13;;;;;;;15.07;10.67;;;;;;;;;;5015755;28;20220;-69
2022/01/07 11:41:55;;;;;;;15.17;11.40;;;;;;;;;;5017108;28;20269;-69
2022/01/07 11:44:26;;;;;;;16.63;11.67;;;;;;;;;;5010493;28;20299;-71
2022/01/07 11:47:12;;;;;;;13.40;10.70;;;;;;;;;;5011549;28;20252;-70
2022/01/07 11:49:41;;;;;;;13.80;11.43;;;;;;;;;;5023550;28;20243;-69
2022/01/07 11:52:38;;;;;;;18.13;11.87;;;;;;;;;;5049975;28;20247;-70
2022/01/07 11:55:26;;;;;;;18.73;12.27;;;;;;;;;;5026483;28;20213;-70
2022/01/07 11:58:01;;;;;;;16.73;12.57;;;;;;;;;;5030593;28;20216;-70
2022/01/07 12:00:59;;;;;;;16.40;12.57;;;;;;;;;;5014771;28;20717;-71
2022/01/07 12:03:34;;;;;;;19.23;13.07;;;;;;;;;;5009908;28;20271;-70
2022/01/07 12:06:21;;;;;;;38.53;15.53;;;;;;;;;;5026874;28;20712;-72
2022/01/07 12:08:58;;;;;;;22.73;14.40;;;;;;;;;;5030479;28;20606;-73
2022/01/07 12:11:29;;;;;;;21.73;15.57;;;;;;;;;;5022729;28;20228;-71
2022/01/07 12:13:58;;;;;;;20.17;15.53;;;;;;;;;;4996173;28;20222;-71
2022/01/07 12:16:32;;;;;;;18.03;14.33;;;;;;;;;;4992301;28;20314;-73
2022/01/07 12:19:51;;;;;;;19.27;14.47;;;;;;;;;;4994012;28;20307;-73
2022/01/07 12:22:17;;;;;;;19.93;14.93;;;;;;;;;;4991884;28;20220;-73
2022/01/07 12:24:47;;;;;;;18.73;14.60;;;;;;;;;;5007441;28;20220;-72
2022/01/07 12:27:18;;;;;;;17.07;14.00;;;;;;;;;;5006235;28;20235;-73
2022/01/07 12:29:53;;;;;;;17.00;13.47;;;;;;;;;;5024818;28;20236;-72
2022/01/07 12:32:28;;;;;;;20.47;14.43;;;;;;;;;;4996545;28;20228;-74
2022/01/07 12:34:57;;;;;;;21.43;15.47;;;;;;;;;;4980568;28;20295;-73
2022/01/07 12:37:27;;;;;;;18.67;14.73;;;;;;;;;;5013218;28;20319;-73
2022/01/07 12:39:56;;;;;;;21.20;16.23;;;;;;;;;;5005846;28;20670;-74
2022/01/07 12:42:28;;;;;;;19.27;15.47;;;;;;;;;;5012545;28;20215;-73
2022/01/07 12:44:57;;;;;;;22.67;15.30;;;;;;;;;;5012496;28;20223;-73
2022/01/07 12:47:29;;;;;;;18.63;15.53;;;;;;;;;;5016844;28;20232;-73
2022/01/07 12:49:56;;;;;;;25.27;17.30;;;;;;;;;;5018420;28;20702;-74
2022/01/07 12:52:27;;;;;;;20.10;16.40;;;;;;;;;;5026981;28;20315;-73
2022/01/07 12:55:08;;;;;;;24.03;16.20;;;;;;;;;;5008984;28;20223;-73
2022/01/07 12:57:47;;;;;;;25.33;16.40;;;;;;;;;;5025068;28;20763;-74
2022/01/07 13:00:18;;;;;;;21.23;16.67;;;;;;;;;;5012216;28;20223;-74
2022/01/07 13:02:48;;;;;;;20.63;16.63;;;;;;;;;;5029044;28;20235;-75
2022/01/07 13:05:14;;;;;;;21.03;15.83;;;;;;;;;;5000144;28;20299;-73
2022/01/07 13:07:46;;;;;;;18.63;15.27;;;;;;;;;;5029694;28;20224;-72
2022/01/07 13:10:11;;;;;;;18.63;15.27;;;;;;;;;;5009647;28;20228;-72
2022/01/07 13:12:38;;;;;;;21.73;15.50;;;;;;;;;;5026170;28;20219;-72
2022/01/07 13:15:07;;;;;;;27.07;16.00;;;;;;;;;;5044157;28;20224;-74
2022/01/07 13:17:34;;;;;;;26.97;17.90;;;;;;;;;;5031521;28;20223;-73
2022/01/07 13:20:00;;;;;;;66.50;34.37;;;;;;;;;;5025144;28;20357;-73
2022/01/07 13:22:31;;;;;;;43.93;24.40;;;;;;;;;;5012075;28;20224;-73
2022/01/07 13:24:58;;;;;;;26.77;18.57;;;;;;;;;;5027867;28;20212;-74
2022/01/07 13:27:24;;;;;;;28.13;19.60;;;;;;;;;;5009142;28;20289;-71
2022/01/07 13:29:51;;;;;;;27.73;17.77;;;;;;;;;;5025099;28;20231;-72
2022/01/07 13:32:21;;;;;;;21.93;16.23;;;;;;;;;;5031925;28;20220;-75
2022/01/07 13:34:46;;;;;;;22.23;17.20;;;;;;;;;;5011604;28;20223;-73
2022/01/07 13:37:16;;;;;;;23.87;16.50;;;;;;;;;;5032077;28;20284;-72
2022/01/07 13:39:46;;;;;;;22.10;15.90;;;;;;;;;;5009777;28;20220;-73
2022/01/07 13:42:17;;;;;;;21.57;15.90;;;;;;;;;;5012321;28;20232;-73
2022/01/07 13:45:04;;;;;;;23.50;16.87;;;;;;;;;;4996588;28;20213;-73
2022/01/07 13:47:34;;;;;;;20.60;15.97;;;;;;;;;;5023690;28;20231;-73
2022/01/07 13:50:19;;;;;;;21.87;16.53;;;;;;;;;;5011079;28;20235;-74
2022/01/07 13:52:44;;;;;;;23.17;15.83;;;;;;;;;;5026209;28;20231;-74
2022/01/07 13:55:34;;;;;;;25.73;17.13;;;;;;;;;;5032923;28;20216;-73
2022/01/07 13:58:14;;;;;;;22.30;15.97;;;;;;;;;;5013815;28;20223;-73
2022/01/07 17:22:07;;;;;;;16.57;13.30;;;;;;;;;;5008686;27;2003874;-73
2022/01/07 17:24:33;;;;;;;21.13;17.67;;;;;;;;;;5047931;28;20217;-73
2022/01/07 17:27:01;;;;;;;20.10;15.40;;;;;;;;;;5046540;28;20215;-73
2022/01/07 17:29:27;;;;;;;25.93;18.17;;;;;;;;;;5034762;28;20678;-73
2022/01/07 17:31:57;;;;;;;21.73;15.90;;;;;;;;;;5030332;28;20219;-74
2022/01/07 17:34:23;;;;;;;20.03;15.07;;;;;;;;;;5046742;28;20676;-72
2022/01/07 17:36:52;;;;;;;17.23;15.20;;;;;;;;;;5048574;28;20246;-73
2022/01/07 17:39:18;;;;;;;19.83;14.73;;;;;;;;;;5013900;28;20226;-73
2022/01/07 17:41:43;;;;;;;22.30;16.10;;;;;;;;;;5013695;28;20223;-73
2022/01/07 17:44:09;;;;;;;17.63;14.33;;;;;;;;;;5043185;28;20223;-73
2022/01/07 17:46:37;;;;;;;15.80;14.10;;;;;;;;;;5038457;28;20323;-73
2022/01/07 17:49:02;;;;;;;17.63;14.20;;;;;;;;;;5026772;28;20723;-73
2022/01/07 17:51:33;;;;;;;17.00;14.03;;;;;;;;;;5041675;28;20224;-73
2022/01/07 17:54:01;;;;;;;16.93;13.53;;;;;;;;;;5043762;28;20220;-73
2022/01/07 17:56:26;;;;;;;14.70;13.13;;;;;;;;;;5034036;28;20224;-73
2022/01/07 17:58:56;;;;;;;16.63;12.63;;;;;;;;;;5027349;28;20228;-75
2022/01/07 18:01:24;;;;;;;16.33;13.07;;;;;;;;;;5028821;28;20694;-80
2022/01/07 18:03:49;;;;;;;17.17;13.37;;;;;;;;;;5035221;28;20272;-78
2022/01/07 18:06:15;;;;;;;17.57;13.00;;;;;;;;;;5009417;28;20212;-75
2022/01/07 18:08:43;;;;;;;16.80;13.67;;;;;;;;;;4978064;28;20219;-74
2022/01/07 18:11:13;;;;;;;19.80;14.97;;;;;;;;;;5026768;28;20586;-74